sensor_id;sensor_type;location;lat;lon;timestamp;temperature;humidity
14359;DHT22;7263;49.418;11.064;2023-11-19T00:01:53;5.10;99.90
14359;DHT22;7263;49.418;11.064;2023-11-19T00:04:20;5.40;99.90
14359;DHT22;7263;49.418;11.064;2023-11-19T00:06:57;5.20;99.90
14359;DHT22;7263;49.418;11.064;2023-11-19T00:09:37;5.20;99.90
14359;DHT22;7263;49.418;11.064;2023-11-19T00:12:10;5.20;99.90
14359;DHT22;7263;49.418;11.064;2023-11-19T00:14:38;5.20;99.90
14359;DHT22;7263;49.418;11.064;2023-11-19T00:17:05;5.20;99.90
14359;DHT22;7263;49.418;11.064;2023-11-19T00:19:32;5.20;99.90
14359;DHT22;7263;49.418;11.064;2023-11-19T00:22:05;5.20;99.90
14359;DHT22;7263;49.418;11.064;2023-11-19T00:24:38;5.20;99.90
14359;DHT22;7263;49.418;11.064;2023-11-19T00:27:05;5.30;99.90
14359;DHT22;7263;49.418;11.064;2023-11-19T00:29:33;5.30;99.90
14359;DHT22;7263;49.418;11.064;2023-11-19T00:32:00;5.30;99.90
14359;DHT22;7263;49.418;11.064;2023-11-19T00:34:30;5.30;99.90
14359;DHT22;7263;49.418;11.064;2023-11-19T00:36:57;5.30;99.90
14359;DHT22;7263;49.418;11.064;2023-11-19T00:39:28;5.30;99.90
14359;DHT22;7263;49.418;11.064;2023-11-19T00:41:57;5.40;99.90
14359;DHT22;7263;49.418;11.064;2023-11-19T00:44:39;5.40;99.90
14359;DHT22;7263;49.418;11.064;2023-11-19T00:47:06;5.40;99.90
14359;DHT22;7263;49.418;11.064;2023-11-19T00:49:42;5.40;99.90
14359;DHT22;7263;49.418;11.064;2023-11-19T00:52:09;5.40;99.90
14359;DHT22;7263;49.418;11.064;2023-11-19T00:54:44;5.40;99.90
14359;DHT22;7263;49.418;11.064;2023-11-19T00:57:26;5.40;99.90
14359;DHT22;7263;49.418;11.064;2023-11-19T00:59:58;5.40;99.90
14359;DHT22;7263;49.418;11.064;2023-11-19T01:02:25;5.40;99.90
14359;DHT22;7263;49.418;11.064;2023-11-19T01:04:55;5.60;99.90
14359;DHT22;7263;49.418;11.064;2023-11-19T01:07:25;5.50;99.90
14359;DHT22;7263;49.418;11.064;2023-11-19T01:09:57;5.50;99.90
14359;DHT22;7263;49.418;11.064;2023-11-19T01:12:29;5.50;99.90
14359;DHT22;7263;49.418;11.064;2023-11-19T01:14:56;5.50;99.90
14359;DHT22;7263;49.418;11.064;2023-11-19T01:17:23;5.50;99.90
14359;DHT22;7263;49.418;11.064;2023-11-19T01:19:56;5.50;99.90
14359;DHT22;7263;49.418;11.064;2023-11-19T01:22:23;5.50;99.90
14359;DHT22;7263;49.418;11.064;2023-11-19T01:24:50;5.50;99.90
14359;DHT22;7263;49.418;11.064;2023-11-19T01:27:21;5.60;99.90
14359;DHT22;7263;49.418;11.064;2023-11-19T01:29:48;5.60;99.90
14359;DHT22;7263;49.418;11.064;2023-11-19T01:32:23;5.60;99.90
14359;DHT22;7263;49.418;11.064;2023-11-19T01:34:50;5.80;99.90
14359;DHT22;7263;49.418;11.064;2023-11-19T01:37:25;5.70;99.90
14359;DHT22;7263;49.418;11.064;2023-11-19T01:39:55;5.60;99.90
14359;DHT22;7263;49.418;11.064;2023-11-19T01:42:28;5.60;99.90
14359;DHT22;7263;49.418;11.064;2023-11-19T01:44:58;5.60;99.90
14359;DHT22;7263;49.418;11.064;2023-11-19T01:47:28;5.60;99.90
14359;DHT22;7263;49.418;11.064;2023-11-19T01:49:59;5.90;99.90
14359;DHT22;7263;49.418;11.064;2023-11-19T01:52:26;5.60;99.90
14359;DHT22;7263;49.418;11.064;2023-11-19T01:54:53;5.60;99.90
14359;DHT22;7263;49.418;11.064;2023-11-19T01:57:28;5.60;99.90
14359;DHT22;7263;49.418;11.064;2023-11-19T01:59:54;5.60;99.90
14359;DHT22;7263;49.418;11.064;2023-11-19T02:02:21;5.70;99.90
14359;DHT22;7263;49.418;11.064;2023-11-19T02:04:51;5.70;99.90
14359;DHT22;7263;49.418;11.064;2023-11-19T02:07:19;5.70;99.90
14359;DHT22;7263;49.418;11.064;2023-11-19T02:09:46;5.70;99.90
14359;DHT22;7263;49.418;11.064;2023-11-19T02:12:12;5.70;99.90
14359;DHT22;7263;49.418;11.064;2023-11-19T02:14:41;5.80;99.90
14359;DHT22;7263;49.418;11.064;2023-11-19T02:17:25;5.80;99.90
14359;DHT22;7263;49.418;11.064;2023-11-19T02:19:52;5.80;99.90
14359;DHT22;7263;49.418;11.064;2023-11-19T02:22:21;5.80;99.90
14359;DHT22;7263;49.418;11.064;2023-11-19T02:24:53;5.80;99.90
14359;DHT22;7263;49.418;11.064;2023-11-19T02:27:28;5.80;99.90
14359;DHT22;7263;49.418;11.064;2023-11-19T02:30:01;5.70;99.90
14359;DHT22;7263;49.418;11.064;2023-11-19T02:32:37;5.90;99.90
14359;DHT22;7263;49.418;11.064;2023-11-19T02:35:09;5.90;99.90
14359;DHT22;7263;49.418;11.064;2023-11-19T02:37:38;5.90;99.90
14359;DHT22;7263;49.418;11.064;2023-11-19T02:40:06;5.90;99.90
14359;DHT22;7263;49.418;11.064;2023-11-19T02:42:34;5.90;99.90
14359;DHT22;7263;49.418;11.064;2023-11-19T02:45:07;5.90;99.90
14359;DHT22;7263;49.418;11.064;2023-11-19T02:47:44;5.90;99.90
14359;DHT22;7263;49.418;11.064;2023-11-19T02:50:14;5.90;99.90
14359;DHT22;7263;49.418;11.064;2023-11-19T02:55:48;5.90;99.90
14359;DHT22;7263;49.418;11.064;2023-11-19T02:58:16;5.90;99.90
14359;DHT22;7263;49.418;11.064;2023-11-19T03:00:53;6.00;99.90
14359;DHT22;7263;49.418;11.064;2023-11-19T03:03:23;6.00;99.90
14359;DHT22;7263;49.418;11.064;2023-11-19T03:06:03;6.00;99.90
14359;DHT22;7263;49.418;11.064;2023-11-19T03:08:37;6.00;99.90
14359;DHT22;7263;49.418;11.064;2023-11-19T03:11:06;5.90;99.90
14359;DHT22;7263;49.418;11.064;2023-11-19T03:13:34;6.00;99.90
14359;DHT22;7263;49.418;11.064;2023-11-19T03:16:08;6.00;99.90
14359;DHT22;7263;49.418;11.064;2023-11-19T03:18:38;6.00;99.90
14359;DHT22;7263;49.418;11.064;2023-11-19T03:21:07;6.10;99.90
14359;DHT22;7263;49.418;11.064;2023-11-19T03:23:34;6.10;99.90
14359;DHT22;7263;49.418;11.064;2023-11-19T03:26:05;6.10;99.90
14359;DHT22;7263;49.418;11.064;2023-11-19T03:28:44;6.10;99.90
14359;DHT22;7263;49.418;11.064;2023-11-19T03:31:12;6.10;99.90
14359;DHT22;7263;49.418;11.064;2023-11-19T03:33:42;6.10;99.90
14359;DHT22;7263;49.418;11.064;2023-11-19T03:36:15;6.10;99.90
14359;DHT22;7263;49.418;11.064;2023-11-19T03:38:42;6.10;99.90
14359;DHT22;7263;49.418;11.064;2023-11-19T03:41:11;6.10;99.90
14359;DHT22;7263;49.418;11.064;2023-11-19T03:43:39;6.20;99.90
14359;DHT22;7263;49.418;11.064;2023-11-19T03:46:17;6.20;99.90
14359;DHT22;7263;49.418;11.064;2023-11-19T03:48:51;6.20;99.90
14359;DHT22;7263;49.418;11.064;2023-11-19T03:51:19;6.30;99.90
14359;DHT22;7263;49.418;11.064;2023-11-19T03:53:46;6.30;99.90
14359;DHT22;7263;49.418;11.064;2023-11-19T03:56:16;6.30;99.90
14359;DHT22;7263;49.418;11.064;2023-11-19T03:58:49;6.30;99.90
14359;DHT22;7263;49.418;11.064;2023-11-19T04:01:24;6.30;99.90
14359;DHT22;7263;49.418;11.064;2023-11-19T04:03:51;7.90;99.90
14359;DHT22;7263;49.418;11.064;2023-11-19T04:06:20;6.30;99.90
14359;DHT22;7263;49.418;11.064;2023-11-19T04:08:56;6.30;99.90
14359;DHT22;7263;49.418;11.064;2023-11-19T04:11:29;6.40;99.90
14359;DHT22;7263;49.418;11.064;2023-11-19T04:13:56;6.40;99.90
14359;DHT22;7263;49.418;11.064;2023-11-19T04:16:27;6.70;99.90
14359;DHT22;7263;49.418;11.064;2023-11-19T04:18:55;6.50;99.90
14359;DHT22;7263;49.418;11.064;2023-11-19T04:21:25;6.50;99.90
14359;DHT22;7263;49.418;11.064;2023-11-19T04:23:57;6.50;99.90
14359;DHT22;7263;49.418;11.064;2023-11-19T04:26:24;6.50;99.90
14359;DHT22;7263;49.418;11.064;2023-11-19T04:28:57;6.60;99.90
14359;DHT22;7263;49.418;11.064;2023-11-19T04:31:30;6.60;99.90
14359;DHT22;7263;49.418;11.064;2023-11-19T04:34:00;6.60;99.90
14359;DHT22;7263;49.418;11.064;2023-11-19T04:36:27;6.60;99.90
14359;DHT22;7263;49.418;11.064;2023-11-19T04:38:55;6.60;99.90
14359;DHT22;7263;49.418;11.064;2023-11-19T04:41:24;6.70;99.90
14359;DHT22;7263;49.418;11.064;2023-11-19T04:43:52;6.70;99.90
14359;DHT22;7263;49.418;11.064;2023-11-19T04:46:19;6.70;99.90
14359;DHT22;7263;49.418;11.064;2023-11-19T04:48:59;6.80;99.90
14359;DHT22;7263;49.418;11.064;2023-11-19T04:51:26;6.80;99.90
14359;DHT22;7263;49.418;11.064;2023-11-19T04:53:53;6.90;99.90
14359;DHT22;7263;49.418;11.064;2023-11-19T04:56:20;6.90;99.90
14359;DHT22;7263;49.418;11.064;2023-11-19T04:58:54;6.90;99.90
14359;DHT22;7263;49.418;11.064;2023-11-19T05:01:20;7.00;99.90
14359;DHT22;7263;49.418;11.064;2023-11-19T05:03:49;7.00;99.90
14359;DHT22;7263;49.418;11.064;2023-11-19T05:06:19;7.00;99.90
14359;DHT22;7263;49.418;11.064;2023-11-19T05:08:46;7.10;99.90
14359;DHT22;7263;49.418;11.064;2023-11-19T05:11:13;7.10;99.90
14359;DHT22;7263;49.418;11.064;2023-11-19T05:13:48;7.10;99.90
14359;DHT22;7263;49.418;11.064;2023-11-19T05:16:15;7.10;99.90
14359;DHT22;7263;49.418;11.064;2023-11-19T05:18:46;7.10;99.90
14359;DHT22;7263;49.418;11.064;2023-11-19T05:21:14;7.20;99.90
14359;DHT22;7263;49.418;11.064;2023-11-19T05:23:43;7.20;99.90
14359;DHT22;7263;49.418;11.064;2023-11-19T05:26:17;8.30;99.90
14359;DHT22;7263;49.418;11.064;2023-11-19T05:28:50;7.20;99.90
14359;DHT22;7263;49.418;11.064;2023-11-19T05:31:17;7.30;99.90
14359;DHT22;7263;49.418;11.064;2023-11-19T05:33:52;7.30;99.90
14359;DHT22;7263;49.418;11.064;2023-11-19T05:36:20;7.30;99.90
14359;DHT22;7263;49.418;11.064;2023-11-19T05:38:51;7.40;99.90
14359;DHT22;7263;49.418;11.064;2023-11-19T05:41:18;7.50;99.90
14359;DHT22;7263;49.418;11.064;2023-11-19T05:43:47;7.50;99.90
14359;DHT22;7263;49.418;11.064;2023-11-19T05:46:22;7.50;99.90
14359;DHT22;7263;49.418;11.064;2023-11-19T05:48:52;6.00;99.90
14359;DHT22;7263;49.418;11.064;2023-11-19T05:51:23;7.70;99.90
14359;DHT22;7263;49.418;11.064;2023-11-19T05:53:54;7.70;99.90
14359;DHT22;7263;49.418;11.064;2023-11-19T05:56:25;8.10;99.90
14359;DHT22;7263;49.418;11.064;2023-11-19T05:58:58;7.80;99.90
14359;DHT22;7263;49.418;11.064;2023-11-19T06:01:37;7.90;99.90
14359;DHT22;7263;49.418;11.064;2023-11-19T06:04:06;7.90;99.90
14359;DHT22;7263;49.418;11.064;2023-11-19T06:06:40;8.00;99.90
14359;DHT22;7263;49.418;11.064;2023-11-19T06:09:10;8.10;99.90
14359;DHT22;7263;49.418;11.064;2023-11-19T06:11:42;8.10;99.90
14359;DHT22;7263;49.418;11.064;2023-11-19T06:14:10;8.10;99.90
14359;DHT22;7263;49.418;11.064;2023-11-19T06:16:37;8.20;99.90
14359;DHT22;7263;49.418;11.064;2023-11-19T06:19:08;8.20;99.90
14359;DHT22;7263;49.418;11.064;2023-11-19T06:21:39;8.20;99.90
14359;DHT22;7263;49.418;11.064;2023-11-19T06:24:07;8.30;99.90
14359;DHT22;7263;49.418;11.064;2023-11-19T06:26:37;8.30;99.90
14359;DHT22;7263;49.418;11.064;2023-11-19T06:29:04;8.30;99.90
14359;DHT22;7263;49.418;11.064;2023-11-19T06:31:31;8.40;99.90
14359;DHT22;7263;49.418;11.064;2023-11-19T06:34:00;8.40;99.90
14359;DHT22;7263;49.418;11.064;2023-11-19T06:36:27;8.40;99.90
14359;DHT22;7263;49.418;11.064;2023-11-19T06:38:57;8.50;99.90
14359;DHT22;7263;49.418;11.064;2023-11-19T06:41:27;8.50;99.90
14359;DHT22;7263;49.418;11.064;2023-11-19T06:43:57;8.50;99.90
14359;DHT22;7263;49.418;11.064;2023-11-19T06:46:25;8.80;99.90
14359;DHT22;7263;49.418;11.064;2023-11-19T06:48:52;8.50;99.90
14359;DHT22;7263;49.418;11.064;2023-11-19T06:51:19;8.60;99.90
14359;DHT22;7263;49.418;11.064;2023-11-19T06:53:45;8.60;99.90
14359;DHT22;7263;49.418;11.064;2023-11-19T06:56:21;8.50;99.90
14359;DHT22;7263;49.418;11.064;2023-11-19T06:58:48;8.70;99.90
14359;DHT22;7263;49.418;11.064;2023-11-19T07:01:18;8.70;99.90
14359;DHT22;7263;49.418;11.064;2023-11-19T07:03:48;8.80;99.90
14359;DHT22;7263;49.418;11.064;2023-11-19T07:06:20;8.80;99.90
14359;DHT22;7263;49.418;11.064;2023-11-19T07:08:48;8.90;99.90
14359;DHT22;7263;49.418;11.064;2023-11-19T07:11:19;8.90;99.90
14359;DHT22;7263;49.418;11.064;2023-11-19T07:13:48;8.90;99.90
14359;DHT22;7263;49.418;11.064;2023-11-19T07:16:15;9.00;99.90
14359;DHT22;7263;49.418;11.064;2023-11-19T07:18:42;9.10;99.90
14359;DHT22;7263;49.418;11.064;2023-11-19T07:21:09;9.10;99.90
14359;DHT22;7263;49.418;11.064;2023-11-19T07:23:39;9.10;99.90
14359;DHT22;7263;49.418;11.064;2023-11-19T07:26:14;9.20;99.90
14359;DHT22;7263;49.418;11.064;2023-11-19T07:28:44;9.20;99.90
14359;DHT22;7263;49.418;11.064;2023-11-19T07:31:17;9.20;99.90
14359;DHT22;7263;49.418;11.064;2023-11-19T07:33:48;9.30;99.90
14359;DHT22;7263;49.418;11.064;2023-11-19T07:36:15;9.30;99.90
14359;DHT22;7263;49.418;11.064;2023-11-19T07:38:42;9.40;99.90
14359;DHT22;7263;49.418;11.064;2023-11-19T07:41:15;9.30;99.90
14359;DHT22;7263;49.418;11.064;2023-11-19T07:43:46;9.40;99.90
14359;DHT22;7263;49.418;11.064;2023-11-19T07:46:14;9.50;99.90
14359;DHT22;7263;49.418;11.064;2023-11-19T07:48:41;9.50;99.90
14359;DHT22;7263;49.418;11.064;2023-11-19T07:51:11;9.60;99.90
14359;DHT22;7263;49.418;11.064;2023-11-19T07:53:38;9.80;99.90
14359;DHT22;7263;49.418;11.064;2023-11-19T07:56:12;9.80;99.90
14359;DHT22;7263;49.418;11.064;2023-11-19T07:58:38;9.90;99.90
14359;DHT22;7263;49.418;11.064;2023-11-19T08:01:07;9.90;99.90
14359;DHT22;7263;49.418;11.064;2023-11-19T08:03:39;10.00;99.90
14359;DHT22;7263;49.418;11.064;2023-11-19T08:06:06;10.10;99.90
14359;DHT22;7263;49.418;11.064;2023-11-19T08:08:39;10.20;99.90
14359;DHT22;7263;49.418;11.064;2023-11-19T08:11:08;10.40;99.90
14359;DHT22;7263;49.418;11.064;2023-11-19T08:13:35;10.40;99.90
14359;DHT22;7263;49.418;11.064;2023-11-19T08:16:09;10.50;99.90
14359;DHT22;7263;49.418;11.064;2023-11-19T08:18:40;9.30;99.90
14359;DHT22;7263;49.418;11.064;2023-11-19T08:21:08;10.70;99.90
14359;DHT22;7263;49.418;11.064;2023-11-19T08:23:35;10.80;99.90
14359;DHT22;7263;49.418;11.064;2023-11-19T08:26:07;10.80;99.90
14359;DHT22;7263;49.418;11.064;2023-11-19T08:28:43;10.80;99.90
14359;DHT22;7263;49.418;11.064;2023-11-19T08:31:13;10.90;99.90
14359;DHT22;7263;49.418;11.064;2023-11-19T08:33:41;10.90;99.90
14359;DHT22;7263;49.418;11.064;2023-11-19T08:36:18;10.90;99.90
14359;DHT22;7263;49.418;11.064;2023-11-19T08:38:52;11.00;99.90
14359;DHT22;7263;49.418;11.064;2023-11-19T08:41:19;11.00;99.90
14359;DHT22;7263;49.418;11.064;2023-11-19T08:43:50;11.20;99.90
14359;DHT22;7263;49.418;11.064;2023-11-19T08:46:19;11.10;99.90
14359;DHT22;7263;49.418;11.064;2023-11-19T08:48:46;11.20;99.90
14359;DHT22;7263;49.418;11.064;2023-11-19T08:51:13;11.20;99.90
14359;DHT22;7263;49.418;11.064;2023-11-19T08:53:39;11.30;99.90
14359;DHT22;7263;49.418;11.064;2023-11-19T08:56:08;11.30;99.90
14359;DHT22;7263;49.418;11.064;2023-11-19T08:58:35;11.40;99.90
14359;DHT22;7263;49.418;11.064;2023-11-19T09:01:04;11.50;99.90
14359;DHT22;7263;49.418;11.064;2023-11-19T09:03:36;11.60;99.90
14359;DHT22;7263;49.418;11.064;2023-11-19T09:06:11;11.60;99.90
14359;DHT22;7263;49.418;11.064;2023-11-19T09:08:42;11.90;99.90
14359;DHT22;7263;49.418;11.064;2023-11-19T09:11:18;12.20;99.90
14359;DHT22;7263;49.418;11.064;2023-11-19T09:13:45;12.50;99.90
14359;DHT22;7263;49.418;11.064;2023-11-19T09:16:15;12.70;99.90
14359;DHT22;7263;49.418;11.064;2023-11-19T09:18:45;12.80;99.90
14359;DHT22;7263;49.418;11.064;2023-11-19T09:21:15;13.00;99.90
14359;DHT22;7263;49.418;11.064;2023-11-19T09:23:52;13.30;99.90
14359;DHT22;7263;49.418;11.064;2023-11-19T09:26:19;13.40;99.90
14359;DHT22;7263;49.418;11.064;2023-11-19T09:28:46;13.70;99.90
14359;DHT22;7263;49.418;11.064;2023-11-19T09:31:16;14.10;99.90
14359;DHT22;7263;49.418;11.064;2023-11-19T09:33:45;14.40;99.90
14359;DHT22;7263;49.418;11.064;2023-11-19T09:36:26;14.30;99.90
14359;DHT22;7263;49.418;11.064;2023-11-19T09:38:55;14.00;99.90
14359;DHT22;7263;49.418;11.064;2023-11-19T09:41:27;13.80;99.90
14359;DHT22;7263;49.418;11.064;2023-11-19T09:43:57;14.10;99.90
14359;DHT22;7263;49.418;11.064;2023-11-19T09:46:25;14.30;99.90
14359;DHT22;7263;49.418;11.064;2023-11-19T09:48:57;14.20;99.90
14359;DHT22;7263;49.418;11.064;2023-11-19T09:51:38;14.20;99.90
14359;DHT22;7263;49.418;11.064;2023-11-19T09:54:14;14.00;99.90
14359;DHT22;7263;49.418;11.064;2023-11-19T09:56:41;13.80;99.90
14359;DHT22;7263;49.418;11.064;2023-11-19T09:59:11;13.50;99.90
14359;DHT22;7263;49.418;11.064;2023-11-19T10:01:38;13.40;99.90
14359;DHT22;7263;49.418;11.064;2023-11-19T10:04:10;13.40;99.90
14359;DHT22;7263;49.418;11.064;2023-11-19T10:06:38;13.30;99.90
14359;DHT22;7263;49.418;11.064;2023-11-19T10:09:14;13.30;99.90
14359;DHT22;7263;49.418;11.064;2023-11-19T10:11:44;13.40;99.90
14359;DHT22;7263;49.418;11.064;2023-11-19T10:14:20;13.40;99.90
14359;DHT22;7263;49.418;11.064;2023-11-19T10:16:52;13.40;99.90
14359;DHT22;7263;49.418;11.064;2023-11-19T10:19:22;13.40;99.90
14359;DHT22;7263;49.418;11.064;2023-11-19T10:21:50;13.40;99.90
14359;DHT22;7263;49.418;11.064;2023-11-19T10:24:18;13.40;99.90
14359;DHT22;7263;49.418;11.064;2023-11-19T10:26:59;13.40;99.90
14359;DHT22;7263;49.418;11.064;2023-11-19T10:29:29;13.40;99.90
14359;DHT22;7263;49.418;11.064;2023-11-19T10:31:58;13.40;99.90
14359;DHT22;7263;49.418;11.064;2023-11-19T10:34:34;13.30;99.90
14359;DHT22;7263;49.418;11.064;2023-11-19T10:37:03;13.20;99.90
14359;DHT22;7263;49.418;11.064;2023-11-19T10:39:51;13.00;99.90
14359;DHT22;7263;49.418;11.064;2023-11-19T10:42:22;12.90;99.90
14359;DHT22;7263;49.418;11.064;2023-11-19T10:44:52;12.80;99.90
14359;DHT22;7263;49.418;11.064;2023-11-19T10:47:19;12.80;99.90
14359;DHT22;7263;49.418;11.064;2023-11-19T10:49:49;12.80;99.90
14359;DHT22;7263;49.418;11.064;2023-11-19T10:52:18;13.20;99.90
14359;DHT22;7263;49.418;11.064;2023-11-19T10:54:49;13.70;99.90
14359;DHT22;7263;49.418;11.064;2023-11-19T10:57:22;14.10;99.90
14359;DHT22;7263;49.418;11.064;2023-11-19T10:59:55;14.30;99.90
14359;DHT22;7263;49.418;11.064;2023-11-19T11:02:27;14.70;99.90
14359;DHT22;7263;49.418;11.064;2023-11-19T11:04:56;14.90;99.90
14359;DHT22;7263;49.418;11.064;2023-11-19T11:07:24;14.80;99.90
14359;DHT22;7263;49.418;11.064;2023-11-19T11:09:56;14.60;99.90
14359;DHT22;7263;49.418;11.064;2023-11-19T11:12:26;14.50;99.90
14359;DHT22;7263;49.418;11.064;2023-11-19T11:14:54;14.50;99.90
14359;DHT22;7263;49.418;11.064;2023-11-19T11:17:27;14.30;99.90
14359;DHT22;7263;49.418;11.064;2023-11-19T11:19:56;14.20;99.90
14359;DHT22;7263;49.418;11.064;2023-11-19T11:22:26;14.20;99.90
14359;DHT22;7263;49.418;11.064;2023-11-19T11:25:15;14.30;99.90
14359;DHT22;7263;49.418;11.064;2023-11-19T11:30:53;14.40;99.90
14359;DHT22;7263;49.418;11.064;2023-11-19T11:33:32;14.60;99.90
14359;DHT22;7263;49.418;11.064;2023-11-19T11:38:52;14.60;99.90
14359;DHT22;7263;49.418;11.064;2023-11-19T11:41:25;14.60;99.90
14359;DHT22;7263;49.418;11.064;2023-11-19T11:43:52;14.70;99.90
14359;DHT22;7263;49.418;11.064;2023-11-19T11:46:55;14.70;99.90
14359;DHT22;7263;49.418;11.064;2023-11-19T11:49:34;14.90;99.90
14359;DHT22;7263;49.418;11.064;2023-11-19T11:52:04;15.00;99.90
14359;DHT22;7263;49.418;11.064;2023-11-19T11:54:31;15.10;99.90
14359;DHT22;7263;49.418;11.064;2023-11-19T11:57:16;15.00;99.90
14359;DHT22;7263;49.418;11.064;2023-11-19T11:59:53;14.90;99.90
14359;DHT22;7263;49.418;11.064;2023-11-19T12:02:25;14.80;99.90
14359;DHT22;7263;49.418;11.064;2023-11-19T12:05:00;14.70;99.90
14359;DHT22;7263;49.418;11.064;2023-11-19T12:07:47;14.60;99.90
14359;DHT22;7263;49.418;11.064;2023-11-19T12:10:29;14.50;99.90
14359;DHT22;7263;49.418;11.064;2023-11-19T12:13:04;14.40;99.90
14359;DHT22;7263;49.418;11.064;2023-11-19T12:18:39;12.10;99.90
14359;DHT22;7263;49.418;11.064;2023-11-19T12:21:07;14.40;99.90
14359;DHT22;7263;49.418;11.064;2023-11-19T12:23:59;14.50;99.90
14359;DHT22;7263;49.418;11.064;2023-11-19T12:26:40;14.60;99.90
14359;DHT22;7263;49.418;11.064;2023-11-19T12:29:13;14.60;99.90
14359;DHT22;7263;49.418;11.064;2023-11-19T12:31:44;14.60;99.90
14359;DHT22;7263;49.418;11.064;2023-11-19T12:34:13;14.70;99.90
14359;DHT22;7263;49.418;11.064;2023-11-19T12:36:48;14.50;99.90
14359;DHT22;7263;49.418;11.064;2023-11-19T12:39:16;14.70;99.90
14359;DHT22;7263;49.418;11.064;2023-11-19T12:41:52;14.70;99.90
14359;DHT22;7263;49.418;11.064;2023-11-19T12:44:20;14.70;99.90
14359;DHT22;7263;49.418;11.064;2023-11-19T12:47:12;14.70;99.90
14359;DHT22;7263;49.418;11.064;2023-11-19T12:49:55;14.60;99.90
14359;DHT22;7263;49.418;11.064;2023-11-19T12:52:26;14.60;99.90
14359;DHT22;7263;49.418;11.064;2023-11-19T12:55:00;14.60;99.90
14359;DHT22;7263;49.418;11.064;2023-11-19T12:57:37;14.60;99.90
14359;DHT22;7263;49.418;11.064;2023-11-19T13:00:05;14.60;99.90
14359;DHT22;7263;49.418;11.064;2023-11-19T13:02:49;14.70;99.90
14359;DHT22;7263;49.418;11.064;2023-11-19T13:05:29;14.70;99.90
14359;DHT22;7263;49.418;11.064;2023-11-19T13:07:59;14.70;99.90
14359;DHT22;7263;49.418;11.064;2023-11-19T13:10:51;14.60;99.90
14359;DHT22;7263;49.418;11.064;2023-11-19T13:13:19;14.40;99.90
14359;DHT22;7263;49.418;11.064;2023-11-19T13:15:46;14.40;99.90
14359;DHT22;7263;49.418;11.064;2023-11-19T13:18:16;14.30;99.90
14359;DHT22;7263;49.418;11.064;2023-11-19T13:20:46;14.30;99.90
14359;DHT22;7263;49.418;11.064;2023-11-19T13:23:22;14.20;99.90
14359;DHT22;7263;49.418;11.064;2023-11-19T13:25:49;14.20;99.90
14359;DHT22;7263;49.418;11.064;2023-11-19T13:28:20;14.30;99.90
14359;DHT22;7263;49.418;11.064;2023-11-19T13:30:55;14.30;99.90
14359;DHT22;7263;49.418;11.064;2023-11-19T13:33:42;14.40;99.90
14359;DHT22;7263;49.418;11.064;2023-11-19T13:36:12;14.50;99.90
14359;DHT22;7263;49.418;11.064;2023-11-19T13:38:41;14.50;99.90
14359;DHT22;7263;49.418;11.064;2023-11-19T13:41:10;14.50;99.90
14359;DHT22;7263;49.418;11.064;2023-11-19T13:43:43;14.40;99.90
14359;DHT22;7263;49.418;11.064;2023-11-19T13:46:10;14.30;99.90
14359;DHT22;7263;49.418;11.064;2023-11-19T13:48:39;14.30;99.90
14359;DHT22;7263;49.418;11.064;2023-11-19T13:51:08;14.20;99.90
14359;DHT22;7263;49.418;11.064;2023-11-19T13:53:35;14.20;99.90
14359;DHT22;7263;49.418;11.064;2023-11-19T13:56:03;14.20;99.90
14359;DHT22;7263;49.418;11.064;2023-11-19T13:58:30;14.10;99.90
14359;DHT22;7263;49.418;11.064;2023-11-19T14:01:07;14.30;99.90
14359;DHT22;7263;49.418;11.064;2023-11-19T14:03:59;14.00;99.90
14359;DHT22;7263;49.418;11.064;2023-11-19T14:06:29;13.90;99.90
14359;DHT22;7263;49.418;11.064;2023-11-19T14:08:56;13.90;99.90
14359;DHT22;7263;49.418;11.064;2023-11-19T14:11:25;14.40;99.90
14359;DHT22;7263;49.418;11.064;2023-11-19T14:14:02;13.80;99.90
14359;DHT22;7263;49.418;11.064;2023-11-19T14:16:33;13.80;99.90
14359;DHT22;7263;49.418;11.064;2023-11-19T14:19:00;13.80;99.90
14359;DHT22;7263;49.418;11.064;2023-11-19T14:21:26;13.80;99.90
14359;DHT22;7263;49.418;11.064;2023-11-19T14:23:59;13.80;99.90
14359;DHT22;7263;49.418;11.064;2023-11-19T14:26:26;13.70;99.90
14359;DHT22;7263;49.418;11.064;2023-11-19T14:28:52;13.70;99.90
14359;DHT22;7263;49.418;11.064;2023-11-19T14:31:34;13.60;99.90
14359;DHT22;7263;49.418;11.064;2023-11-19T14:34:08;13.70;99.90
14359;DHT22;7263;49.418;11.064;2023-11-19T14:36:41;13.60;99.90
14359;DHT22;7263;49.418;11.064;2023-11-19T14:39:22;13.70;99.90
14359;DHT22;7263;49.418;11.064;2023-11-19T14:41:49;13.60;99.90
14359;DHT22;7263;49.418;11.064;2023-11-19T14:44:18;13.50;99.90
14359;DHT22;7263;49.418;11.064;2023-11-19T14:46:49;13.50;99.90
14359;DHT22;7263;49.418;11.064;2023-11-19T14:49:26;13.40;99.90
14359;DHT22;7263;49.418;11.064;2023-11-19T14:51:55;13.50;99.90
14359;DHT22;7263;49.418;11.064;2023-11-19T14:54:29;13.30;99.90
14359;DHT22;7263;49.418;11.064;2023-11-19T14:56:58;13.20;99.90
14359;DHT22;7263;49.418;11.064;2023-11-19T14:59:28;13.20;99.90
14359;DHT22;7263;49.418;11.064;2023-11-19T15:01:58;13.00;99.90
14359;DHT22;7263;49.418;11.064;2023-11-19T15:04:26;13.10;99.90
14359;DHT22;7263;49.418;11.064;2023-11-19T15:06:56;13.30;99.90
14359;DHT22;7263;49.418;11.064;2023-11-19T15:09:25;13.00;99.90
14359;DHT22;7263;49.418;11.064;2023-11-19T15:11:56;13.00;99.90
14359;DHT22;7263;49.418;11.064;2023-11-19T15:14:34;13.00;99.90
14359;DHT22;7263;49.418;11.064;2023-11-19T15:17:01;12.80;99.90
14359;DHT22;7263;49.418;11.064;2023-11-19T15:19:29;12.80;99.90
14359;DHT22;7263;49.418;11.064;2023-11-19T15:21:56;12.60;99.90
14359;DHT22;7263;49.418;11.064;2023-11-19T15:24:25;12.70;99.90
14359;DHT22;7263;49.418;11.064;2023-11-19T15:26:54;12.60;99.90
14359;DHT22;7263;49.418;11.064;2023-11-19T15:29:25;12.70;99.90
14359;DHT22;7263;49.418;11.064;2023-11-19T15:31:53;12.50;99.90
14359;DHT22;7263;49.418;11.064;2023-11-19T15:34:20;12.50;99.90
14359;DHT22;7263;49.418;11.064;2023-11-19T15:36:49;12.70;99.90
14359;DHT22;7263;49.418;11.064;2023-11-19T15:39:18;12.90;99.90
14359;DHT22;7263;49.418;11.064;2023-11-19T15:41:50;12.40;99.90
14359;DHT22;7263;49.418;11.064;2023-11-19T15:44:17;12.30;99.90
14359;DHT22;7263;49.418;11.064;2023-11-19T15:46:44;12.40;99.90
14359;DHT22;7263;49.418;11.064;2023-11-19T15:49:13;12.40;99.90
14359;DHT22;7263;49.418;11.064;2023-11-19T15:51:42;12.20;99.90
14359;DHT22;7263;49.418;11.064;2023-11-19T15:54:14;12.60;99.90
14359;DHT22;7263;49.418;11.064;2023-11-19T15:56:41;12.10;99.90
14359;DHT22;7263;49.418;11.064;2023-11-19T15:59:11;12.10;99.90
14359;DHT22;7263;49.418;11.064;2023-11-19T16:01:46;12.20;99.90
14359;DHT22;7263;49.418;11.064;2023-11-19T16:04:12;12.20;99.90
14359;DHT22;7263;49.418;11.064;2023-11-19T16:06:41;12.20;99.90
14359;DHT22;7263;49.418;11.064;2023-11-19T16:09:11;12.50;99.90
14359;DHT22;7263;49.418;11.064;2023-11-19T16:11:45;12.20;99.90
14359;DHT22;7263;49.418;11.064;2023-11-19T16:14:14;12.40;99.90